createdAt,value
2023-07-07T00:00:27.360Z,65.66
2023-07-07T00:01:27.429Z,65.66
2023-07-07T00:02:27.409Z,65.75
2023-07-07T00:03:27.317Z,65.75
2023-07-07T00:04:27.370Z,65.75
2023-07-07T00:05:27.366Z,65.75
2023-07-07T00:06:27.323Z,65.75
2023-07-07T00:07:27.275Z,65.75
2023-07-07T00:08:27.261Z,65.75
2023-07-07T00:09:27.251Z,65.75
2023-07-07T00:10:27.279Z,65.75
2023-07-07T00:11:27.235Z,65.75
2023-07-07T00:12:27.251Z,65.75
2023-07-07T00:13:27.292Z,65.75
2023-07-07T00:14:27.203Z,65.75
2023-07-07T00:15:27.192Z,65.75
2023-07-07T00:16:27.265Z,65.75
2023-07-07T00:17:27.199Z,65.75
2023-07-07T00:18:27.179Z,65.75
2023-07-07T00:19:27.144Z,65.75
2023-07-07T00:20:27.130Z,65.75
2023-07-07T00:21:27.145Z,65.75
2023-07-07T00:22:27.150Z,65.75
2023-07-07T00:23:27.129Z,65.75
2023-07-07T00:24:27.088Z,65.75
2023-07-07T00:25:27.109Z,65.75
2023-07-07T00:26:27.069Z,65.75
2023-07-07T00:27:27.096Z,65.75
2023-07-07T00:28:27.082Z,65.75
2023-07-07T00:29:27.041Z,65.75
2023-07-07T00:30:27.066Z,65.75
2023-07-07T00:31:27.065Z,65.75
2023-07-07T00:32:27.051Z,65.75
2023-07-07T00:33:26.997Z,65.75
2023-07-07T00:34:27.024Z,65.75
2023-07-07T00:35:26.972Z,65.86
2023-07-07T00:36:26.958Z,65.75
2023-07-07T00:37:26.981Z,65.75
2023-07-07T00:38:27.007Z,65.86
2023-07-07T00:39:26.970Z,65.86
2023-07-07T00:40:26.922Z,65.86
2023-07-07T00:41:26.908Z,65.86
2023-07-07T00:42:26.911Z,65.86
2023-07-07T00:43:26.887Z,65.86
2023-07-07T00:44:26.922Z,65.86
2023-07-07T00:45:26.877Z,65.86
2023-07-07T00:46:26.893Z,65.86
2023-07-07T00:47:26.853Z,65.86
2023-07-07T00:48:26.834Z,65.86
2023-07-07T00:49:26.855Z,65.86
2023-07-07T00:50:26.849Z,65.86
2023-07-07T00:51:26.837Z,65.86
2023-07-07T00:52:26.798Z,65.86
2023-07-07T00:53:26.802Z,65.86
2023-07-07T00:54:26.769Z,65.86
2023-07-07T00:55:26.753Z,65.86
2023-07-07T00:56:26.793Z,65.86
2023-07-07T00:57:26.775Z,65.86
2023-07-07T00:58:26.727Z,65.86
2023-07-07T00:59:26.717Z,65.86
2023-07-07T01:00:26.705Z,65.86
2023-07-07T01:01:26.724Z,65.86
2023-07-07T01:02:27.014Z,65.86
2023-07-07T01:03:26.669Z,65.86
2023-07-07T01:04:26.685Z,65.86
2023-07-07T01:05:26.663Z,65.86
2023-07-07T01:06:26.636Z,65.86
2023-07-07T01:07:26.686Z,65.86
2023-07-07T01:08:26.614Z,65.86
2023-07-07T01:09:26.629Z,65.86
2023-07-07T01:10:26.631Z,65.86
2023-07-07T01:11:26.582Z,65.86
2023-07-07T01:12:26.603Z,65.86
2023-07-07T01:13:26.606Z,65.86
2023-07-07T01:14:26.588Z,65.86
2023-07-07T01:15:26.543Z,65.86
2023-07-07T01:16:26.552Z,65.86
2023-07-07T01:17:26.574Z,65.86
2023-07-07T01:18:26.543Z,65.95
2023-07-07T01:19:26.499Z,65.86
2023-07-07T01:20:26.482Z,65.86
2023-07-07T01:21:26.511Z,65.86
2023-07-07T01:22:26.496Z,65.86
2023-07-07T01:23:26.497Z,65.86
2023-07-07T01:24:26.477Z,65.95
2023-07-07T01:25:26.455Z,65.86
2023-07-07T01:26:26.457Z,65.86
2023-07-07T01:27:26.409Z,65.86
2023-07-07T01:28:26.395Z,65.86
2023-07-07T01:29:26.385Z,65.95
2023-07-07T01:30:26.416Z,65.95
2023-07-07T01:31:26.389Z,65.95
2023-07-07T01:32:26.394Z,65.86
2023-07-07T01:33:26.343Z,65.95
2023-07-07T01:34:26.348Z,65.95
2023-07-07T01:35:26.375Z,65.95
2023-07-07T01:36:26.313Z,65.95
2023-07-07T01:37:26.301Z,65.95
2023-07-07T01:38:26.292Z,65.95
2023-07-07T01:39:26.282Z,65.95
2023-07-07T01:40:26.324Z,65.95
2023-07-07T01:41:26.277Z,65.95
2023-07-07T01:42:26.246Z,65.95
2023-07-07T01:43:26.230Z,65.95
2023-07-07T01:44:26.224Z,65.95
2023-07-07T01:45:26.247Z,65.95
2023-07-07T01:46:26.214Z,65.95
2023-07-07T01:47:26.227Z,65.95
2023-07-07T01:48:26.176Z,65.95
2023-07-07T01:49:26.178Z,65.95
2023-07-07T01:50:26.193Z,65.95
2023-07-07T01:51:26.183Z,65.95
2023-07-07T01:52:26.155Z,65.95
2023-07-07T01:53:26.128Z,65.95
2023-07-07T01:54:26.111Z,65.95
2023-07-07T01:55:26.144Z,65.95
2023-07-07T01:56:26.089Z,65.95
2023-07-07T01:57:26.190Z,65.95
2023-07-07T01:58:26.067Z,65.95
2023-07-07T01:59:26.066Z,65.95
2023-07-07T02:00:26.044Z,65.95
2023-07-07T02:01:26.063Z,65.95
2023-07-07T02:02:26.057Z,65.95
2023-07-07T02:03:26.046Z,65.95
2023-07-07T02:04:26.066Z,65.95
2023-07-07T02:05:25.990Z,65.95
2023-07-07T02:06:25.979Z,65.95
2023-07-07T02:07:25.969Z,65.95
2023-07-07T02:08:25.996Z,65.95
2023-07-07T02:09:25.950Z,65.95
2023-07-07T02:10:25.945Z,65.95
2023-07-07T02:11:25.924Z,65.95
2023-07-07T02:12:25.921Z,65.95
2023-07-07T02:13:26.002Z,65.95
2023-07-07T02:14:25.890Z,65.95
2023-07-07T02:15:25.897Z,65.95
2023-07-07T02:16:25.870Z,66.05
2023-07-07T02:17:26.139Z,66.05
2023-07-07T02:18:26.015Z,65.95
2023-07-07T02:19:25.841Z,65.95
2023-07-07T02:20:25.837Z,66.05
2023-07-07T02:21:25.816Z,66.05
2023-07-07T02:22:25.808Z,66.05
2023-07-07T02:23:25.794Z,66.05
2023-07-07T02:24:25.824Z,66.05
2023-07-07T02:25:25.781Z,66.05
2023-07-07T02:26:25.763Z,66.05
2023-07-07T02:27:25.766Z,66.05
2023-07-07T02:28:25.761Z,66.05
2023-07-07T02:29:25.801Z,66.05
2023-07-07T02:30:25.717Z,66.05
2023-07-07T02:31:25.989Z,66.05
2023-07-07T02:32:25.716Z,66.05
2023-07-07T02:33:25.686Z,66.05
2023-07-07T02:34:25.673Z,66.05
2023-07-07T02:35:25.698Z,66.05
2023-07-07T02:36:25.657Z,66.05
2023-07-07T02:37:25.740Z,66.05
2023-07-07T02:38:25.629Z,66.05
2023-07-07T02:39:25.620Z,66.05
2023-07-07T02:40:25.649Z,66.05
2023-07-07T02:41:25.605Z,66.05
2023-07-07T02:42:25.594Z,66.05
2023-07-07T02:43:25.575Z,66.05
2023-07-07T02:44:25.563Z,66.05
2023-07-07T02:45:25.619Z,66.05
2023-07-07T02:46:25.574Z,66.05
2023-07-07T02:47:25.575Z,66.05
2023-07-07T02:48:25.539Z,66.05
2023-07-07T02:49:25.514Z,66.05
2023-07-07T02:50:25.546Z,66.05
2023-07-07T02:51:25.502Z,66.05
2023-07-07T02:52:25.513Z,66.05
2023-07-07T02:53:25.468Z,66.05
2023-07-07T02:54:25.461Z,66.05
2023-07-07T02:55:25.447Z,66.05
2023-07-07T02:56:27.982Z,66.05
2023-07-07T02:57:25.428Z,66.05
2023-07-07T02:58:25.420Z,66.05
2023-07-07T02:59:25.404Z,66.05
2023-07-07T03:00:25.393Z,66.05
2023-07-07T03:01:25.492Z,66.05
2023-07-07T03:02:25.418Z,66.05
2023-07-07T03:03:25.414Z,66.16
2023-07-07T03:04:25.377Z,66.16
2023-07-07T03:05:25.340Z,66.05
2023-07-07T03:06:25.331Z,66.05
2023-07-07T03:07:25.358Z,66.05
2023-07-07T03:08:25.338Z,66.16
2023-07-07T03:09:25.300Z,66.05
2023-07-07T03:10:25.331Z,66.05
2023-07-07T03:11:25.279Z,66.05
2023-07-07T03:12:25.263Z,66.16
2023-07-07T03:13:27.429Z,66.16
2023-07-07T03:14:25.242Z,66.16
2023-07-07T03:15:25.239Z,66.16
2023-07-07T03:16:25.273Z,66.16
2023-07-07T03:17:25.256Z,66.16
2023-07-07T03:18:25.196Z,66.05
2023-07-07T03:19:25.187Z,66.05
2023-07-07T03:20:25.181Z,66.05
2023-07-07T03:21:25.208Z,66.16
2023-07-07T03:22:25.156Z,66.05
2023-07-07T03:23:25.168Z,66.05
2023-07-07T03:24:25.136Z,66.16
2023-07-07T03:25:25.124Z,66.05
2023-07-07T03:26:25.148Z,66.05
2023-07-07T03:27:25.102Z,66.05
2023-07-07T03:28:25.088Z,66.09
2023-07-07T03:29:25.115Z,66.05
2023-07-07T03:30:25.096Z,66.05
2023-07-07T03:31:25.104Z,66.16
2023-07-07T03:32:25.072Z,66.05
2023-07-07T03:33:25.064Z,66.05
2023-07-07T03:34:25.028Z,66.19
2023-07-07T03:35:25.021Z,66.16
2023-07-07T03:36:25.033Z,66.05
2023-07-07T03:37:24.998Z,66.09
2023-07-07T03:38:24.986Z,66.05
2023-07-07T03:39:24.979Z,66.05
2023-07-07T03:40:25.006Z,66.09
2023-07-07T03:41:24.984Z,66.16
2023-07-07T03:42:24.939Z,66.05
2023-07-07T03:43:24.927Z,66.05
2023-07-07T03:44:24.926Z,66.09
2023-07-07T03:45:24.910Z,66.05
2023-07-07T03:46:24.962Z,66.19
2023-07-07T03:47:24.955Z,66.16
2023-07-07T03:48:24.886Z,66.16
2023-07-07T03:49:24.888Z,66.19
2023-07-07T03:50:24.888Z,66.16
2023-07-07T03:51:24.848Z,66.19
2023-07-07T03:52:24.863Z,66.19
2023-07-07T03:53:24.821Z,66.19
2023-07-07T03:54:24.814Z,66.19
2023-07-07T03:55:24.801Z,66.19
2023-07-07T03:56:24.818Z,66.19
2023-07-07T03:57:24.777Z,66.19
2023-07-07T03:58:24.783Z,66.05
2023-07-07T03:59:24.786Z,66.16
2023-07-07T04:00:24.752Z,66.09
2023-07-07T04:01:24.765Z,66.19
2023-07-07T04:02:24.752Z,66.16
2023-07-07T04:03:24.841Z,66.09
2023-07-07T04:04:24.874Z,66.05
2023-07-07T04:05:24.766Z,66.05
2023-07-07T04:06:24.682Z,66.16
2023-07-07T04:07:24.669Z,66.16
2023-07-07T04:08:24.689Z,66.16
2023-07-07T04:09:24.645Z,66.16
2023-07-07T04:10:24.633Z,66.09
2023-07-07T04:11:24.628Z,66.09
2023-07-07T04:12:24.614Z,66.19
2023-07-07T04:13:24.656Z,66.19
2023-07-07T04:14:24.621Z,66.19
2023-07-07T04:15:24.583Z,66.16
2023-07-07T04:16:24.602Z,66.19
2023-07-07T04:17:24.590Z,66.19
2023-07-07T04:18:24.552Z,66.19
2023-07-07T04:19:24.550Z,66.19
2023-07-07T04:20:24.562Z,66.19
2023-07-07T04:21:24.539Z,66.19
2023-07-07T04:22:24.516Z,66.16
2023-07-07T04:23:24.578Z,66.19
2023-07-07T04:24:24.493Z,66.19
2023-07-07T04:25:24.504Z,66.19
2023-07-07T04:26:24.457Z,66.19
2023-07-07T04:27:24.463Z,66.19
2023-07-07T04:28:24.444Z,66.19
2023-07-07T04:29:24.438Z,66.16
2023-07-07T04:30:24.429Z,66.16
2023-07-07T04:31:24.509Z,66.19
2023-07-07T04:32:24.416Z,66.19
2023-07-07T04:33:24.410Z,66.16
2023-07-07T04:34:24.371Z,66.19
2023-07-07T04:35:24.373Z,66.19
2023-07-07T04:36:24.354Z,66.19
2023-07-07T04:37:24.363Z,66.19
2023-07-07T04:38:24.358Z,66.19
2023-07-07T04:39:24.317Z,66.16
2023-07-07T04:40:24.321Z,66.09
2023-07-07T04:41:24.334Z,66.16
2023-07-07T04:42:24.289Z,66.09
2023-07-07T04:43:24.298Z,66.19
2023-07-07T04:44:24.258Z,66.19
2023-07-07T04:45:24.260Z,66.19
2023-07-07T04:46:24.275Z,66.19
2023-07-07T04:47:24.241Z,66.16
2023-07-07T04:48:24.251Z,66.16
2023-07-07T04:49:24.207Z,66.19
2023-07-07T04:50:24.233Z,66.19
2023-07-07T04:51:24.216Z,66.19
2023-07-07T04:52:24.191Z,66.19
2023-07-07T04:53:24.181Z,66.19
2023-07-07T04:54:24.152Z,66.16
2023-07-07T04:55:24.137Z,66.19
2023-07-07T04:56:24.178Z,66.16
2023-07-07T04:57:24.124Z,66.19
2023-07-07T04:58:24.109Z,66.16
2023-07-07T04:59:24.125Z,66.16
2023-07-07T05:00:24.113Z,66.19
2023-07-07T05:01:24.088Z,66.19
2023-07-07T05:02:24.287Z,66.16
2023-07-07T05:03:24.091Z,66.16
2023-07-07T05:04:24.040Z,66.16
2023-07-07T05:05:24.063Z,66.16
2023-07-07T05:06:24.018Z,66.19
2023-07-07T05:07:24.008Z,66.19
2023-07-07T05:08:23.999Z,66.19
2023-07-07T05:09:24.049Z,66.19
2023-07-07T05:10:23.979Z,66.16
2023-07-07T05:11:23.966Z,66.19
2023-07-07T05:12:23.953Z,66.16
2023-07-07T05:13:24.024Z,66.16
2023-07-07T05:14:24.011Z,66.16
2023-07-07T05:15:23.924Z,66.19
2023-07-07T05:16:24.014Z,66.16
2023-07-07T05:17:23.925Z,66.16
2023-07-07T05:18:23.892Z,66.19
2023-07-07T05:19:23.907Z,66.16
2023-07-07T05:20:23.865Z,66.16
2023-07-07T05:21:23.856Z,66.16
2023-07-07T05:22:23.844Z,66.19
2023-07-07T05:23:23.843Z,66.16
2023-07-07T05:24:23.855Z,66.16
2023-07-07T05:25:23.842Z,66.16
2023-07-07T05:26:23.804Z,66.19
2023-07-07T05:27:23.793Z,66.16
2023-07-07T05:28:23.819Z,66.16
2023-07-07T05:29:23.805Z,66.16
2023-07-07T05:30:23.765Z,66.16
2023-07-07T05:31:23.773Z,66.16
2023-07-07T05:32:23.780Z,66.16
2023-07-07T05:33:23.753Z,66.16
2023-07-07T05:34:23.714Z,66.16
2023-07-07T05:35:23.702Z,66.16
2023-07-07T05:36:23.720Z,66.16
2023-07-07T05:37:23.681Z,66.16
2023-07-07T05:38:23.680Z,66.16
2023-07-07T05:39:23.658Z,66.16
2023-07-07T05:40:23.652Z,66.16
2023-07-07T05:41:23.720Z,66.16
2023-07-07T05:42:23.636Z,66.16
2023-07-07T05:43:23.618Z,66.16
2023-07-07T05:44:23.622Z,66.16
2023-07-07T05:45:23.604Z,66.16
2023-07-07T05:46:23.772Z,66.16
2023-07-07T05:47:23.616Z,66.16
2023-07-07T05:48:23.573Z,66.16
2023-07-07T05:49:23.551Z,66.16
2023-07-07T05:50:23.548Z,66.16
2023-07-07T05:51:23.571Z,66.05
2023-07-07T05:52:23.518Z,66.16
2023-07-07T05:53:23.522Z,66.05
2023-07-07T05:54:23.525Z,66.16
2023-07-07T05:55:23.494Z,66.05
2023-07-07T05:56:23.634Z,66.16
2023-07-07T05:57:23.494Z,66.05
2023-07-07T05:58:23.455Z,66.16
2023-07-07T05:59:23.468Z,66.05
2023-07-07T06:00:23.438Z,66.16
2023-07-07T06:01:23.472Z,66.05
2023-07-07T06:02:23.437Z,66.05
2023-07-07T06:03:23.490Z,66.05
2023-07-07T06:04:23.393Z,66.05
2023-07-07T06:05:23.378Z,66.16
2023-07-07T06:06:23.393Z,66.05
2023-07-07T06:07:23.357Z,66.16
2023-07-07T06:08:23.370Z,66.16
2023-07-07T06:09:23.332Z,66.16
2023-07-07T06:10:23.353Z,66.16
2023-07-07T06:11:23.315Z,66.05
2023-07-07T06:12:23.299Z,66.16
2023-07-07T06:13:23.371Z,66.05
2023-07-07T06:14:23.285Z,66.16
2023-07-07T06:15:23.306Z,66.16
2023-07-07T06:16:23.334Z,66.05
2023-07-07T06:17:23.287Z,66.16
2023-07-07T06:18:23.253Z,66.25
2023-07-07T06:19:23.226Z,66.25
2023-07-07T06:20:23.247Z,66.36
2023-07-07T06:21:23.226Z,66.25
2023-07-07T06:22:23.190Z,66.16
2023-07-07T06:23:23.216Z,66.16
2023-07-07T06:24:23.196Z,66.16
2023-07-07T06:25:23.158Z,66.16
2023-07-07T06:26:23.145Z,66.36
2023-07-07T06:27:23.163Z,66.36
2023-07-07T06:28:23.185Z,66.25
2023-07-07T06:29:23.147Z,66.36
2023-07-07T06:30:23.110Z,66.25
2023-07-07T06:31:23.109Z,66.25
2023-07-07T06:32:23.085Z,66.25
2023-07-07T06:33:23.326Z,66.25
2023-07-07T06:34:23.060Z,66.25
2023-07-07T06:35:23.080Z,66.25
2023-07-07T06:36:23.037Z,66.25
2023-07-07T06:37:23.029Z,66.25
2023-07-07T06:38:23.027Z,66.25
2023-07-07T06:39:24.083Z,66.25
2023-07-07T06:40:23.031Z,66.25
2023-07-07T06:41:23.002Z,66.25
2023-07-07T06:42:22.999Z,66.25
2023-07-07T06:43:22.972Z,66.25
2023-07-07T06:44:22.984Z,66.25
2023-07-07T06:45:22.992Z,66.25
2023-07-07T06:46:22.931Z,66.25
2023-07-07T06:47:23.007Z,66.25
2023-07-07T06:48:22.926Z,66.25
2023-07-07T06:49:22.928Z,66.36
2023-07-07T06:50:22.892Z,66.36
2023-07-07T06:51:22.880Z,66.36
2023-07-07T06:52:22.864Z,66.46
2023-07-07T06:53:22.889Z,66.36
2023-07-07T06:54:22.842Z,66.46
2023-07-07T06:55:22.845Z,66.36
2023-07-07T06:56:22.846Z,66.46
2023-07-07T06:57:22.844Z,66.46
2023-07-07T06:58:22.799Z,66.46
2023-07-07T06:59:22.790Z,66.46
2023-07-07T07:00:22.795Z,66.46
2023-07-07T07:01:22.889Z,66.55
2023-07-07T07:02:22.780Z,66.46
2023-07-07T07:03:22.791Z,66.46
2023-07-07T07:04:22.762Z,66.55
2023-07-07T07:05:22.742Z,66.46
2023-07-07T07:06:22.724Z,66.46
2023-07-07T07:07:22.715Z,66.46
2023-07-07T07:08:22.691Z,66.46
2023-07-07T07:09:22.763Z,66.55
2023-07-07T07:10:22.669Z,66.55
2023-07-07T07:11:22.656Z,66.55
2023-07-07T07:12:22.653Z,66.55
2023-07-07T07:13:22.651Z,66.66
2023-07-07T07:14:22.658Z,66.55
2023-07-07T07:15:22.641Z,66.55
2023-07-07T07:16:22.700Z,66.55
2023-07-07T07:17:22.700Z,66.55
2023-07-07T07:18:22.591Z,66.55
2023-07-07T07:19:22.610Z,66.55
2023-07-07T07:20:22.565Z,66.55
2023-07-07T07:21:22.568Z,66.55
2023-07-07T07:22:22.575Z,66.55
2023-07-07T07:23:22.531Z,66.55
2023-07-07T07:24:22.519Z,66.55
2023-07-07T07:25:22.542Z,66.55
2023-07-07T07:26:22.497Z,66.46
2023-07-07T07:27:22.484Z,66.46
2023-07-07T07:28:22.504Z,66.46
2023-07-07T07:29:22.466Z,66.55
2023-07-07T07:30:22.459Z,66.46
2023-07-07T07:31:22.454Z,66.46
2023-07-07T07:32:22.455Z,66.55
2023-07-07T07:33:22.473Z,66.55
2023-07-07T07:34:22.408Z,66.55
2023-07-07T07:35:22.412Z,66.55
2023-07-07T07:36:22.387Z,66.55
2023-07-07T07:37:22.377Z,66.55
2023-07-07T07:38:22.406Z,66.55
2023-07-07T07:39:22.367Z,66.55
2023-07-07T07:40:22.377Z,66.55
2023-07-07T07:41:22.332Z,66.46
2023-07-07T07:42:22.322Z,66.55
2023-07-07T07:43:22.315Z,66.46
2023-07-07T07:44:22.304Z,66.46
2023-07-07T07:45:22.328Z,66.55
2023-07-07T07:46:22.282Z,66.66
2023-07-07T07:47:22.326Z,66.55
2023-07-07T07:48:22.294Z,66.55
2023-07-07T07:49:22.282Z,66.55
2023-07-07T07:50:22.297Z,66.55
2023-07-07T07:51:34.868Z,66.55
2023-07-07T07:52:23.210Z,66.55
2023-07-07T07:53:22.204Z,66.55
2023-07-07T07:54:22.203Z,66.46
2023-07-07T07:55:22.182Z,66.46
2023-07-07T07:56:22.202Z,66.46
2023-07-07T07:57:22.164Z,66.46
2023-07-07T07:58:22.154Z,66.46
2023-07-07T07:59:22.144Z,66.36
2023-07-07T08:00:22.158Z,66.36
2023-07-07T08:01:22.149Z,66.36
2023-07-07T08:02:22.152Z,66.46
2023-07-07T08:03:22.182Z,66.55
2023-07-07T08:04:22.158Z,66.46
2023-07-07T08:05:22.139Z,66.36
2023-07-07T08:06:22.064Z,66.46
2023-07-07T08:07:22.053Z,66.46
2023-07-07T08:08:22.044Z,66.46
2023-07-07T08:09:22.045Z,66.36
2023-07-07T08:10:22.075Z,66.25
2023-07-07T08:11:22.057Z,66.36
2023-07-07T08:12:22.010Z,66.25
2023-07-07T08:13:35.167Z,66.25
2023-07-07T08:14:23.125Z,66.25
2023-07-07T08:15:21.970Z,66.36
2023-07-07T08:16:21.971Z,66.36
2023-07-07T08:17:21.979Z,66.36
2023-07-07T08:18:21.935Z,66.36
2023-07-07T08:19:21.922Z,66.36
2023-07-07T08:20:21.916Z,66.36
2023-07-07T08:21:21.930Z,66.36
2023-07-07T08:22:21.921Z,66.36
2023-07-07T08:23:21.876Z,66.36
2023-07-07T08:24:21.874Z,66.36
2023-07-07T08:25:21.858Z,66.32
2023-07-07T08:28:21.821Z,66.36
2023-07-07T08:30:21.834Z,66.36
2023-07-07T08:31:21.906Z,66.32
2023-07-07T08:32:21.806Z,66.36
2023-07-07T08:33:21.797Z,66.36
2023-07-07T08:34:21.753Z,66.36
2023-07-07T08:35:21.763Z,66.32
2023-07-07T08:36:21.732Z,66.36
2023-07-07T08:37:21.769Z,66.36
2023-07-07T08:38:21.730Z,66.32
2023-07-07T08:39:23.686Z,66.32
2023-07-07T08:40:21.685Z,66.32
2023-07-07T08:41:21.698Z,66.32
2023-07-07T08:42:21.665Z,66.32
2023-07-07T08:43:21.666Z,66.32
2023-07-07T08:44:21.682Z,66.22
2023-07-07T08:45:21.631Z,66.22
2023-07-07T08:46:21.663Z,66.22
2023-07-07T08:47:21.693Z,66.22
2023-07-07T08:48:21.631Z,66.22
2023-07-07T08:49:21.621Z,66.22
2023-07-07T08:50:29.081Z,66.22
2023-07-07T08:51:22.564Z,66.22
2023-07-07T08:52:21.555Z,66.22
2023-07-07T08:53:21.595Z,66.22
2023-07-07T08:54:21.571Z,66.22
2023-07-07T08:55:21.550Z,66.22
2023-07-07T08:56:21.531Z,66.13
2023-07-07T08:57:21.501Z,66.13
2023-07-07T08:58:29.193Z,66.13
2023-07-07T08:59:22.714Z,66.13
2023-07-07T09:00:21.533Z,66.13
2023-07-07T09:01:21.487Z,66.02
2023-07-07T09:02:21.478Z,66.02
2023-07-07T09:03:21.433Z,66.02
2023-07-07T09:04:21.560Z,66.02
2023-07-07T09:05:21.465Z,66.02
2023-07-07T09:06:21.410Z,66.02
2023-07-07T09:07:21.391Z,66.02
2023-07-07T09:08:21.385Z,66.02
2023-07-07T09:09:21.425Z,66.02
2023-07-07T09:10:21.360Z,65.92
2023-07-07T09:11:21.350Z,65.92
2023-07-07T09:12:21.340Z,66.02
2023-07-07T09:13:21.371Z,66.02
2023-07-07T09:14:21.347Z,66.02
2023-07-07T09:15:21.333Z,65.92
2023-07-07T09:16:21.363Z,65.92
2023-07-07T09:17:21.325Z,65.92
2023-07-07T09:18:21.283Z,65.92
2023-07-07T09:19:21.262Z,65.92
2023-07-07T09:20:21.259Z,65.92
2023-07-07T09:21:21.282Z,65.92
2023-07-07T09:22:21.236Z,65.92
2023-07-07T09:23:21.215Z,65.92
2023-07-07T09:24:21.222Z,65.92
2023-07-07T09:25:21.218Z,65.92
2023-07-07T09:26:21.187Z,65.92
2023-07-07T09:27:21.215Z,65.92
2023-07-07T09:28:21.165Z,65.92
2023-07-07T09:29:21.186Z,65.92
2023-07-07T09:30:21.144Z,65.92
2023-07-07T09:31:21.174Z,65.92
2023-07-07T09:32:21.126Z,65.92
2023-07-07T09:33:22.686Z,65.92
2023-07-07T09:34:21.100Z,65.92
2023-07-07T09:35:21.090Z,65.83
2023-07-07T09:36:21.103Z,65.83
2023-07-07T09:37:21.104Z,65.83
2023-07-07T09:38:21.056Z,65.83
2023-07-07T09:39:21.075Z,65.83
2023-07-07T09:40:21.038Z,65.83
2023-07-07T09:41:21.047Z,65.83
2023-07-07T09:42:21.014Z,65.83
2023-07-07T09:43:21.037Z,65.83
2023-07-07T09:44:20.993Z,65.83
2023-07-07T09:45:20.991Z,65.72
2023-07-07T09:46:21.038Z,65.72
2023-07-07T09:47:20.963Z,65.72
2023-07-07T09:48:21.000Z,65.72
2023-07-07T09:49:20.990Z,65.72
2023-07-07T09:50:20.930Z,65.72
2023-07-07T09:51:20.919Z,65.72
2023-07-07T09:52:20.903Z,65.83
2023-07-07T09:53:24.346Z,65.83
2023-07-07T09:54:21.920Z,65.72
2023-07-07T09:55:20.874Z,65.72
2023-07-07T09:56:20.863Z,65.72
2023-07-07T09:57:20.881Z,65.72
2023-07-07T09:58:20.841Z,65.72
2023-07-07T09:59:20.862Z,65.83
2023-07-07T10:00:29.518Z,65.72
2023-07-07T10:01:21.845Z,65.72
2023-07-07T10:02:20.805Z,65.72
2023-07-07T10:03:20.788Z,65.72
2023-07-07T10:04:20.831Z,65.72
2023-07-07T10:05:20.800Z,65.72
2023-07-07T10:06:20.793Z,65.72
2023-07-07T10:07:20.758Z,65.72
2023-07-07T10:08:20.739Z,65.72
2023-07-07T10:09:20.734Z,65.72
2023-07-07T10:10:20.715Z,65.72
2023-07-07T10:11:43.909Z,65.62
2023-07-07T10:12:27.847Z,65.62
2023-07-07T10:13:21.748Z,65.62
2023-07-07T10:14:20.774Z,65.62
2023-07-07T10:15:20.658Z,65.62
2023-07-07T10:16:20.743Z,65.62
2023-07-07T10:17:20.636Z,65.62
2023-07-07T10:18:20.638Z,65.62
2023-07-07T10:19:20.625Z,65.62
2023-07-07T10:20:20.609Z,65.62
2023-07-07T10:21:20.643Z,65.62
2023-07-07T10:22:20.586Z,65.62
2023-07-07T10:23:20.573Z,65.62
2023-07-07T10:24:20.601Z,65.62
2023-07-07T10:25:20.565Z,65.62
2023-07-07T10:26:20.549Z,65.62
2023-07-07T10:27:20.559Z,65.62
2023-07-07T10:28:20.521Z,65.62
2023-07-07T10:29:20.533Z,65.62
2023-07-07T10:30:22.980Z,65.62
2023-07-07T10:31:20.514Z,65.62
2023-07-07T10:32:20.614Z,65.62
2023-07-07T10:33:20.464Z,65.62
2023-07-07T10:34:20.454Z,65.62
2023-07-07T10:35:20.471Z,65.62
2023-07-07T10:36:20.435Z,65.62
2023-07-07T10:37:20.426Z,65.62
2023-07-07T10:38:20.408Z,65.62
2023-07-07T10:39:20.436Z,65.62
2023-07-07T10:40:20.385Z,65.62
2023-07-07T10:41:20.382Z,65.62
2023-07-07T10:42:20.366Z,65.62
2023-07-07T10:43:20.352Z,65.62
2023-07-07T10:44:20.377Z,65.62
2023-07-07T10:45:20.385Z,65.62
2023-07-07T10:46:20.404Z,65.62
2023-07-07T10:47:23.563Z,65.62
2023-07-07T10:48:20.302Z,65.62
2023-07-07T10:49:20.320Z,65.62
2023-07-07T10:50:21.841Z,65.62
2023-07-07T10:51:20.266Z,65.62
2023-07-07T10:53:07.325Z,65.62
2023-07-07T10:53:23.544Z,65.62
2023-07-07T10:54:21.382Z,65.62
2023-07-07T10:55:21.113Z,65.62
2023-07-07T10:56:20.218Z,65.62
2023-07-07T10:57:20.202Z,65.62
2023-07-07T10:58:20.195Z,65.62
2023-07-07T10:59:20.198Z,65.62
2023-07-07T11:00:29.897Z,65.62
2023-07-07T11:01:21.230Z,65.62
2023-07-07T11:02:20.510Z,65.62
2023-07-07T11:03:22.250Z,65.62
2023-07-07T11:04:20.339Z,65.62
2023-07-07T11:05:20.177Z,65.62
2023-07-07T11:06:20.104Z,65.62
2023-07-07T11:07:20.127Z,65.52
2023-07-07T11:08:20.083Z,65.52
2023-07-07T11:09:20.074Z,65.52
2023-07-07T11:10:20.196Z,65.52
2023-07-07T11:11:20.075Z,65.52
2023-07-07T11:12:20.072Z,65.52
2023-07-07T11:13:20.185Z,65.52
2023-07-07T11:14:20.021Z,65.52
2023-07-07T11:15:20.012Z,65.52
2023-07-07T11:16:20.050Z,65.52
2023-07-07T11:17:20.038Z,65.52
2023-07-07T11:18:20.035Z,65.52
2023-07-07T11:19:20.004Z,65.52
2023-07-07T11:20:19.954Z,65.42
2023-07-07T11:21:19.943Z,65.42
2023-07-07T11:22:19.930Z,65.42
2023-07-07T11:23:21.468Z,65.42
2023-07-07T11:24:47.847Z,65.42
2023-07-07T11:25:20.929Z,65.42
2023-07-07T11:26:19.886Z,65.42
2023-07-07T11:27:19.898Z,65.42
2023-07-07T11:28:19.927Z,65.42
2023-07-07T11:29:19.891Z,65.33
2023-07-07T11:30:19.851Z,65.33
2023-07-07T11:31:19.947Z,65.33
2023-07-07T11:32:19.834Z,65.22
2023-07-07T11:33:19.880Z,65.22
2023-07-07T11:34:19.813Z,65.22
2023-07-07T11:35:19.795Z,65.22
2023-07-07T11:36:19.786Z,65.12
2023-07-07T11:37:19.769Z,65.12
2023-07-07T11:38:19.791Z,65.12
2023-07-07T11:39:19.778Z,65.12
2023-07-07T11:40:19.738Z,65.12
2023-07-07T11:41:19.738Z,65.12
2023-07-07T11:42:19.719Z,65.12
2023-07-07T11:43:19.712Z,65.12
2023-07-07T11:44:19.695Z,65.12
2023-07-07T11:45:19.740Z,65.12
2023-07-07T11:46:19.725Z,65.02
2023-07-07T11:47:19.722Z,65.02
2023-07-07T11:48:19.654Z,65.02
2023-07-07T11:49:19.668Z,64.92
2023-07-07T11:50:19.646Z,64.92
2023-07-07T11:51:19.623Z,64.92
2023-07-07T11:52:19.616Z,64.92
2023-07-07T11:53:19.628Z,64.92
2023-07-07T11:54:19.589Z,64.92
2023-07-07T11:55:19.584Z,64.92
2023-07-07T11:56:19.574Z,64.92
2023-07-07T11:57:19.556Z,64.92
2023-07-07T11:58:19.576Z,64.92
2023-07-07T11:59:19.533Z,64.92
2023-07-07T12:00:19.523Z,64.92
2023-07-07T12:01:19.514Z,64.92
2023-07-07T12:02:19.670Z,64.92
2023-07-07T12:03:19.610Z,64.92
2023-07-07T12:04:19.529Z,64.92
2023-07-07T12:05:19.683Z,64.92
2023-07-07T12:06:19.457Z,64.92
2023-07-07T12:07:19.453Z,64.92
2023-07-07T12:08:19.466Z,64.92
2023-07-07T12:09:19.438Z,64.92
2023-07-07T12:10:19.424Z,64.83
2023-07-07T12:11:19.436Z,64.83
2023-07-07T12:12:19.392Z,64.83
2023-07-07T12:13:19.413Z,64.83
2023-07-07T12:14:19.371Z,64.83
2023-07-07T12:15:19.363Z,64.83
2023-07-07T12:16:19.386Z,64.83
2023-07-07T12:17:19.510Z,64.83
2023-07-07T12:18:19.327Z,64.83
2023-07-07T12:19:19.330Z,64.83
2023-07-07T12:20:19.308Z,64.72
2023-07-07T12:21:19.339Z,64.72
2023-07-07T12:22:19.323Z,64.83
2023-07-07T12:23:19.276Z,64.72
2023-07-07T12:24:19.264Z,64.72
2023-07-07T12:25:19.261Z,64.72
2023-07-07T12:26:19.324Z,64.72
2023-07-07T12:27:19.292Z,64.72
2023-07-07T12:28:19.230Z,64.72
2023-07-07T12:29:19.217Z,64.72
2023-07-07T12:30:19.230Z,64.72
2023-07-07T12:31:19.282Z,64.72
2023-07-07T12:32:19.237Z,64.72
2023-07-07T12:33:19.171Z,64.72
2023-07-07T12:34:19.160Z,64.72
2023-07-07T12:35:19.146Z,64.72
2023-07-07T12:36:19.169Z,64.72
2023-07-07T12:37:19.152Z,64.83
2023-07-07T12:38:19.153Z,64.72
2023-07-07T12:39:19.114Z,64.72
2023-07-07T12:40:19.160Z,64.72
2023-07-07T12:41:19.084Z,64.83
2023-07-07T12:42:19.078Z,64.83
2023-07-07T12:43:19.091Z,64.83
2023-07-07T12:44:19.081Z,64.72
2023-07-07T12:45:19.043Z,64.72
2023-07-07T12:46:19.102Z,64.72
2023-07-07T12:47:19.050Z,64.72
2023-07-07T12:48:19.017Z,64.72
2023-07-07T12:49:18.999Z,64.72
2023-07-07T12:50:18.994Z,64.72
2023-07-07T12:51:18.975Z,64.72
2023-07-07T12:52:18.968Z,64.72
2023-07-07T12:53:19.009Z,64.72
2023-07-07T12:54:18.946Z,64.72
2023-07-07T12:55:18.931Z,64.72